Time;durP1;ratioP1;P1;durP2;ratioP2;P2;SDS_P1;SDS_P2;PMS_P1;PMS_P2;Temp;Humidity;BMP_temperature;BMP_pressure;BME280_temperature;BME280_humidity;BME280_pressure;Samples;Min_cycle;Max_cycle;Signal;HPM_P1;HPM_P2
2021/08/04 00:01:24;;;;;;;4.38;2.47;;;;;;;15.36;82.49;100363.03;4976765;28;20045;-83
2021/08/04 00:03:49;;;;;;;5.43;3.15;;;;;;;15.39;82.39;100354.97;4977252;28;20030;-83
2021/08/04 00:06:15;;;;;;;4.70;3.15;;;;;;;15.40;82.47;100356.69;4976438;28;20039;-83
2021/08/04 00:08:40;;;;;;;6.18;3.47;;;;;;;15.37;82.26;100357.66;4977957;28;20038;-83
2021/08/04 00:11:05;;;;;;;6.47;3.65;;;;;;;15.38;82.05;100361.16;4979934;28;20041;-83
2021/08/04 00:13:31;;;;;;;8.05;4.93;;;;;;;15.37;82.07;100355.00;4980196;28;20131;-83
2021/08/04 00:15:56;;;;;;;4.60;3.15;;;;;;;15.39;82.37;100363.81;4979650;28;20035;-83
2021/08/04 00:18:21;;;;;;;4.13;2.85;;;;;;;15.44;82.32;100353.03;4981954;28;20049;-83
2021/08/04 00:20:47;;;;;;;5.18;3.85;;;;;;;15.47;81.89;100358.25;4982107;28;20035;-84
2021/08/04 00:23:13;;;;;;;6.18;3.75;;;;;;;15.43;81.93;100361.91;4979895;28;20039;-84
2021/08/04 00:25:38;;;;;;;5.03;3.70;;;;;;;15.48;81.54;100360.00;4980794;28;20043;-84
2021/08/04 00:28:04;;;;;;;6.53;3.75;;;;;;;15.47;81.56;100363.59;4981208;28;20046;-84
2021/08/04 00:30:29;;;;;;;6.00;4.03;;;;;;;15.50;81.18;100359.03;4979736;28;20038;-83
2021/08/04 00:32:55;;;;;;;7.30;5.05;;;;;;;15.49;81.50;100357.31;4979533;28;20031;-84
2021/08/04 00:35:22;;;;;;;6.15;4.10;;;;;;;15.54;81.45;100359.84;4979820;28;20457;-83
2021/08/04 00:37:47;;;;;;;5.53;3.53;;;;;;;15.55;81.18;100354.44;4979670;28;20066;-84
2021/08/04 00:40:13;;;;;;;5.82;4.38;;;;;;;15.53;81.43;100358.06;4979827;28;20043;-84
2021/08/04 00:42:38;;;;;;;5.68;3.80;;;;;;;15.53;81.60;100352.75;4964290;28;20041;-84
2021/08/04 00:45:05;;;;;;;5.72;3.72;;;;;;;15.53;81.23;100358.06;4979268;28;20041;-84
2021/08/04 00:47:30;;;;;;;5.68;4.20;;;;;;;15.52;81.00;100357.22;4979150;28;20094;-84
2021/08/04 00:49:57;;;;;;;5.18;4.13;;;;;;;15.42;81.27;100358.38;4985469;28;20035;-84
2021/08/04 00:52:22;;;;;;;6.53;4.80;;;;;;;15.37;81.26;100359.44;4979774;28;20046;-85
2021/08/04 00:54:47;;;;;;;9.48;4.95;;;;;;;15.28;81.71;100369.44;4962964;28;20035;-84
2021/08/04 00:57:13;;;;;;;6.63;5.10;;;;;;;15.23;81.84;100365.16;4982745;28;20034;-84
2021/08/04 00:59:38;;;;;;;7.35;4.00;;;;;;;15.23;81.64;100365.16;4980734;28;20027;-84
2021/08/04 01:02:13;;;;;;;4.88;4.03;;;;;;;15.23;81.94;100363.38;4979627;28;20038;-84
2021/08/04 01:04:49;;;;;;;6.68;5.30;;;;;;;15.11;82.37;100369.00;4963620;28;20037;-83
2021/08/04 01:07:36;;;;;;;6.72;4.68;;;;;;;15.01;82.83;100367.50;4973289;28;20043;-83
2021/08/04 01:10:17;;;;;;;5.70;4.53;;;;;;;15.06;82.54;100370.91;4979683;28;20038;-83
2021/08/04 01:12:47;;;;;;;9.13;5.65;;;;;;;15.06;82.75;100365.59;4975454;28;20405;-83
2021/08/04 01:15:14;;;;;;;8.05;6.63;;;;;;;15.04;82.53;100363.00;4978834;28;20069;-83
2021/08/04 01:17:47;;;;;;;8.38;5.18;;;;;;;14.98;82.38;100365.81;4977966;28;20409;-83
2021/08/04 01:20:22;;;;;;;6.20;3.90;;;;;;;14.93;82.77;100361.53;4970156;28;20478;-84
2021/08/04 01:23:06;;;;;;;5.90;4.40;;;;;;;14.92;83.85;100365.13;4977771;28;20031;-83
2021/08/04 01:25:39;;;;;;;7.15;4.43;;;;;;;14.95;83.16;100362.38;4966685;28;20122;-83
2021/08/04 01:28:21;;;;;;;8.05;4.95;;;;;;;14.96;83.38;100365.00;4978796;28;20097;-84
2021/08/04 01:30:51;;;;;;;6.13;4.53;;;;;;;14.94;82.90;100364.16;4963506;28;20034;-83
2021/08/04 01:33:17;;;;;;;6.00;3.80;;;;;;;14.93;82.77;100369.50;4975376;28;20045;-83
2021/08/04 01:35:44;;;;;;;8.02;3.95;;;;;;;14.89;83.08;100366.94;4963113;28;20038;-84
2021/08/04 01:38:12;;;;;;;7.07;4.45;;;;;;;14.87;83.00;100366.09;4978995;28;20066;-84
2021/08/04 01:40:41;;;;;;;6.45;4.22;;;;;;;14.86;82.88;100369.69;4978862;28;20465;-84
2021/08/04 01:43:10;;;;;;;13.02;5.20;;;;;;;14.83;82.73;100363.59;4978670;28;20030;-83
2021/08/04 01:45:37;;;;;;;7.45;4.28;;;;;;;14.78;83.24;100360.19;4978896;28;20033;-84
2021/08/04 01:48:03;;;;;;;5.88;4.13;;;;;;;14.79;83.06;100357.47;4977959;28;20379;-83
2021/08/04 01:50:29;;;;;;;4.93;3.47;;;;;;;14.79;82.58;100367.22;4976334;28;20039;-83
2021/08/04 01:52:55;;;;;;;6.10;3.97;;;;;;;14.75;82.99;100362.88;4960783;28;20098;-83
2021/08/04 01:55:20;;;;;;;6.00;4.20;;;;;;;14.73;83.09;100357.63;4976703;28;20931;-83
2021/08/04 01:57:46;;;;;;;7.68;4.18;;;;;;;14.73;83.01;100365.59;4977109;28;20046;-83
2021/08/04 02:00:11;;;;;;;7.85;4.28;;;;;;;14.71;82.80;100356.78;4977148;28;20046;-83
2021/08/04 02:02:42;;;;;;;7.00;4.00;;;;;;;14.69;82.60;100350.63;4976477;28;20065;-83
2021/08/04 02:05:08;;;;;;;5.07;3.42;;;;;;;14.70;82.34;100349.75;4977614;28;20113;-83
2021/08/04 02:08:08;;;;;;;6.85;3.85;;;;;;;14.61;82.57;100347.31;4977168;28;20050;-84
2021/08/04 02:10:58;;;;;;;6.60;4.30;;;;;;;14.50;83.16;100359.97;4976454;28;20039;-84
2021/08/04 02:13:32;;;;;;;7.40;4.13;;;;;;;14.32;84.23;100354.19;4978348;28;20039;-84
2021/08/04 02:16:08;;;;;;;8.10;4.70;;;;;;;14.28;83.77;100355.19;4956606;28;20545;-84
2021/08/04 02:18:34;;;;;;;6.53;4.28;;;;;;;14.24;83.62;100349.06;4978180;28;20051;-84
2021/08/04 02:21:02;;;;;;;7.25;5.13;;;;;;;14.24;83.45;100345.53;4979340;28;20089;-83
2021/08/04 02:23:34;;;;;;;7.35;3.47;;;;;;;14.22;83.42;100340.25;4962274;28;20042;-83
2021/08/04 02:26:05;;;;;;;5.93;4.72;;;;;;;14.18;83.42;100345.69;4974125;28;20037;-83
2021/08/04 02:28:34;;;;;;;6.70;3.80;;;;;;;14.14;82.95;100349.31;4978782;28;20042;-83
2021/08/04 02:31:01;;;;;;;7.22;3.83;;;;;;;14.12;83.08;100353.78;4978065;28;20452;-83
2021/08/04 02:33:27;;;;;;;6.43;5.22;;;;;;;14.07;83.37;100353.03;4976847;28;20035;-84
2021/08/04 02:35:53;;;;;;;7.68;5.00;;;;;;;14.02;83.69;100359.31;4977426;28;20034;-84
2021/08/04 02:38:19;;;;;;;8.52;5.30;;;;;;;13.96;84.43;100358.59;4961755;28;20081;-84
2021/08/04 02:40:45;;;;;;;6.60;5.03;;;;;;;13.97;84.38;100357.69;4978766;28;20042;-83
2021/08/04 02:43:12;;;;;;;9.52;4.97;;;;;;;13.98;83.90;100360.28;4977983;28;20030;-84
2021/08/04 02:45:38;;;;;;;7.28;4.90;;;;;;;13.90;84.15;100354.28;4977137;28;20058;-83
2021/08/04 02:48:04;;;;;;;8.88;4.63;;;;;;;13.86;84.69;100349.06;4976844;28;20137;-83
2021/08/04 02:50:32;;;;;;;5.78;4.78;;;;;;;13.87;84.28;100358.81;4978819;28;20107;-83
2021/08/04 02:52:57;;;;;;;6.93;4.93;;;;;;;13.86;84.08;100355.28;4977989;28;20066;-83
2021/08/04 02:55:23;;;;;;;6.82;4.25;;;;;;;13.86;83.90;100351.72;4980652;28;20058;-83
2021/08/04 02:57:48;;;;;;;8.63;5.55;;;;;;;13.87;84.45;100353.50;4977902;28;20030;-83
2021/08/04 03:00:14;;;;;;;6.90;5.78;;;;;;;13.89;84.06;100363.16;4977576;28;20038;-83
2021/08/04 03:02:39;;;;;;;8.43;5.40;;;;;;;13.89;84.02;100354.34;4980741;28;20098;-84
2021/08/04 03:05:05;;;;;;;7.30;4.30;;;;;;;13.87;83.67;100359.66;4980354;28;20031;-83
2021/08/04 03:07:31;;;;;;;6.15;4.35;;;;;;;13.87;83.95;100349.06;4976567;28;20112;-83
2021/08/04 03:09:57;;;;;;;5.93;4.28;;;;;;;13.88;83.91;100353.44;4977205;28;20537;-84
2021/08/04 03:12:23;;;;;;;6.32;3.38;;;;;;;13.90;83.76;100348.97;4976344;28;20031;-83
2021/08/04 03:14:48;;;;;;;7.63;4.30;;;;;;;13.94;84.04;100355.97;4976014;28;20037;-83
2021/08/04 03:17:14;;;;;;;6.97;3.53;;;;;;;13.92;83.53;100363.09;4977360;28;20050;-83
2021/08/04 03:19:39;;;;;;;10.55;4.55;;;;;;;13.95;84.07;100352.41;4976043;28;20050;-83
2021/08/04 03:22:04;;;;;;;5.60;3.47;;;;;;;13.89;84.32;100355.22;4973629;28;20038;-84
2021/08/04 03:24:30;;;;;;;8.20;4.75;;;;;;;13.88;83.93;100352.56;4975947;28;20038;-83
2021/08/04 03:26:55;;;;;;;6.07;4.30;;;;;;;13.86;84.02;100357.03;4976797;28;20034;-83
2021/08/04 03:29:21;;;;;;;7.35;4.47;;;;;;;13.83;84.26;100357.97;4977643;28;20481;-83
2021/08/04 03:31:46;;;;;;;8.32;4.45;;;;;;;13.79;84.87;100361.63;4975925;28;20045;-83
2021/08/04 03:34:11;;;;;;;8.60;5.03;;;;;;;13.81;84.66;100359.81;4976263;28;20046;-83
2021/08/04 03:36:37;;;;;;;7.93;5.00;;;;;;;13.79;85.05;100356.31;4976584;28;20049;-83
2021/08/04 03:39:02;;;;;;;6.22;3.97;;;;;;;13.76;84.51;100359.03;4976503;28;20042;-83
2021/08/04 03:41:27;;;;;;;9.02;4.22;;;;;;;13.75;85.05;100360.84;4976346;28;20034;-82
2021/08/04 03:43:53;;;;;;;5.05;3.65;;;;;;;13.78;84.73;100358.09;4975033;28;20053;-82
2021/08/04 03:46:18;;;;;;;8.75;4.05;;;;;;;13.80;84.65;100358.91;4969261;28;20038;-82
2021/08/04 03:48:43;;;;;;;6.90;5.18;;;;;;;13.77;84.94;100353.69;4976642;28;20039;-83
2021/08/04 03:51:09;;;;;;;8.02;5.35;;;;;;;13.80;85.15;100353.63;4976518;28;20030;-82
2021/08/04 03:53:34;;;;;;;5.95;5.18;;;;;;;13.83;85.04;100347.38;4970514;28;20050;-83
2021/08/04 03:56:00;;;;;;;6.75;4.78;;;;;;;13.90;84.57;100343.69;4970357;28;20046;-82
2021/08/04 03:58:25;;;;;;;6.45;5.22;;;;;;;13.96;84.63;100351.53;4974436;28;20038;-82
2021/08/04 04:00:50;;;;;;;6.78;4.65;;;;;;;13.99;84.42;100350.53;4975012;28;20035;-82
2021/08/04 04:03:16;;;;;;;6.45;3.90;;;;;;;14.02;84.61;100359.31;4974681;28;20413;-82
2021/08/04 04:05:41;;;;;;;7.82;4.97;;;;;;;14.10;84.65;100352.97;4973257;28;20478;-82
2021/08/04 04:08:06;;;;;;;6.45;4.30;;;;;;;14.16;84.08;100355.47;4975168;28;20039;-81
2021/08/04 04:10:32;;;;;;;7.85;4.68;;;;;;;14.24;83.61;100351.72;4964625;28;20072;-81
2021/08/04 04:12:57;;;;;;;6.65;4.70;;;;;;;14.32;83.33;100356.84;4971460;28;20066;-81
2021/08/04 04:15:23;;;;;;;9.20;4.53;;;;;;;14.40;83.25;100359.31;4975160;28;20046;-80
2021/08/04 04:17:48;;;;;;;7.22;4.60;;;;;;;14.49;83.36;100353.78;4969638;28;20038;-80
2021/08/04 04:20:14;;;;;;;6.60;4.50;;;;;;;14.60;83.37;100354.41;4974278;28;20046;-82
2021/08/04 04:22:44;;;;;;;8.52;4.50;;;;;;;14.73;82.93;100360.28;4974397;28;20035;-80
2021/08/04 04:25:11;;;;;;;10.45;7.05;;;;;;;14.86;82.75;100353.75;4974622;28;20041;-80
2021/08/04 04:27:37;;;;;;;5.93;4.82;;;;;;;15.02;82.34;100358.66;4976154;28;20054;-81
2021/08/04 04:30:02;;;;;;;8.05;4.70;;;;;;;15.10;81.51;100362.81;4975427;28;20394;-80
2021/08/04 04:32:27;;;;;;;9.43;4.72;;;;;;;15.13;81.66;100364.53;4970502;28;20039;-81
2021/08/04 04:34:53;;;;;;;6.70;3.30;;;;;;;15.21;81.50;100361.66;4974576;28;20521;-81
2021/08/04 04:37:18;;;;;;;6.13;3.28;;;;;;;15.29;81.42;100357.88;4976126;28;20098;-81
2021/08/04 04:39:43;;;;;;;4.68;3.20;;;;;;;15.42;81.10;100369.03;4975751;28;20050;-81
2021/08/04 04:42:09;;;;;;;5.03;3.85;;;;;;;15.50;81.08;100367.00;4973199;28;20532;-82
2021/08/04 04:44:34;;;;;;;8.90;4.07;;;;;;;15.61;81.09;100369.34;4977083;28;20444;-82
2021/08/04 04:46:59;;;;;;;5.82;3.40;;;;;;;15.75;80.67;100372.53;4976536;28;20577;-81
2021/08/04 04:49:25;;;;;;;4.90;3.33;;;;;;;15.93;79.92;100375.56;4977371;28;20078;-81
2021/08/04 04:51:50;;;;;;;6.25;3.22;;;;;;;16.04;79.88;100376.09;4975159;28;20039;-82
2021/08/04 04:54:15;;;;;;;6.82;4.35;;;;;;;16.16;79.44;100381.00;4975082;28;20061;-79
2021/08/04 04:56:41;;;;;;;9.15;5.88;;;;;;;16.28;79.07;100381.56;4971188;28;20027;-82
2021/08/04 04:59:06;;;;;;;10.57;7.53;;;;;;;16.38;78.55;100378.56;4978128;28;20039;-82
2021/08/04 05:01:31;;;;;;;9.88;4.90;;;;;;;16.47;78.47;100377.38;4975641;28;20035;-82
2021/08/04 05:03:57;;;;;;;9.10;3.72;;;;;;;16.50;78.31;100382.59;4977933;28;20038;-82
2021/08/04 05:06:22;;;;;;;5.50;3.60;;;;;;;16.53;77.99;100387.84;4978511;28;20040;-82
2021/08/04 05:08:47;;;;;;;6.65;3.58;;;;;;;16.51;78.33;100388.81;4974195;28;20126;-82
2021/08/04 05:11:12;;;;;;;5.15;3.47;;;;;;;16.53;77.95;100386.94;4977313;28;20038;-82
2021/08/04 05:13:38;;;;;;;5.40;3.47;;;;;;;16.50;78.02;100397.72;4977325;28;20592;-82
2021/08/04 05:16:04;;;;;;;8.38;4.35;;;;;;;16.52;77.90;100401.19;4978039;28;20051;-82
2021/08/04 05:18:30;;;;;;;6.93;3.25;;;;;;;16.43;77.68;100400.59;4977975;28;20109;-82
2021/08/04 05:20:55;;;;;;;7.60;3.40;;;;;;;16.49;77.85;100395.97;4975463;28;20034;-82
2021/08/04 05:23:20;;;;;;;4.75;3.00;;;;;;;16.56;77.71;100398.41;4978335;28;20113;-82
2021/08/04 05:25:46;;;;;;;6.20;2.88;;;;;;;16.67;77.43;100395.38;4977814;28;20122;-82
2021/08/04 05:28:11;;;;;;;4.75;3.40;;;;;;;16.76;76.96;100389.72;4978020;28;20054;-82
2021/08/04 05:30:36;;;;;;;4.25;3.05;;;;;;;16.87;76.90;100394.69;4974553;28;20031;-82
2021/08/04 05:33:02;;;;;;;7.75;3.33;;;;;;;16.90;77.03;100399.97;4965604;28;20027;-82
2021/08/04 05:35:27;;;;;;;8.82;4.22;;;;;;;16.98;76.43;100395.22;4970353;28;20493;-82
2021/08/04 05:37:53;;;;;;;7.03;3.70;;;;;;;16.99;76.21;100396.97;4952199;28;20485;-82
2021/08/04 05:40:18;;;;;;;6.80;3.13;;;;;;;17.06;76.23;100393.16;4973955;28;20053;-82
2021/08/04 05:42:43;;;;;;;4.97;2.78;;;;;;;17.12;76.67;100397.41;4968973;28;20540;-82
2021/08/04 05:45:09;;;;;;;6.35;3.97;;;;;;;17.19;75.85;100392.75;4965779;28;20031;-82
2021/08/04 05:47:34;;;;;;;4.85;3.47;;;;;;;17.31;75.72;100397.59;4978258;28;20497;-82
2021/08/04 05:50:00;;;;;;;4.93;3.00;;;;;;;17.39;75.64;100390.19;4977212;28;20069;-82
2021/08/04 05:52:25;;;;;;;6.70;3.33;;;;;;;17.46;74.16;100393.53;4961403;28;20038;-82
2021/08/04 05:54:51;;;;;;;7.10;3.42;;;;;;;17.37;75.09;100402.75;4976855;28;20030;-82
2021/08/04 05:57:16;;;;;;;7.35;3.63;;;;;;;17.40;75.29;100397.28;4976770;28;20050;-82
2021/08/04 05:59:41;;;;;;;5.97;3.03;;;;;;;17.43;75.33;100401.66;4978051;28;20046;-82
2021/08/04 06:02:07;;;;;;;7.45;4.15;;;;;;;17.52;75.28;100402.16;4961119;28;20402;-82
2021/08/04 06:04:32;;;;;;;4.55;3.40;;;;;;;17.69;74.23;100398.00;4976134;28;20410;-82
2021/08/04 06:06:57;;;;;;;5.95;3.00;;;;;;;17.78;74.02;100403.00;4977771;28;20026;-82
2021/08/04 06:09:23;;;;;;;5.00;2.88;;;;;;;17.88;73.31;100404.41;4978077;28;20062;-82
2021/08/04 06:11:48;;;;;;;7.03;4.47;;;;;;;17.95;73.47;100407.72;4979371;28;20039;-83
2021/08/04 06:14:13;;;;;;;7.63;4.05;;;;;;;17.98;73.33;100404.94;4987338;28;20109;-84
2021/08/04 06:16:39;;;;;;;5.85;3.17;;;;;;;18.02;73.52;100409.22;4987343;28;20038;-84
2021/08/04 06:19:04;;;;;;;7.03;4.10;;;;;;;18.11;73.28;100413.34;4987849;28;20039;-84
2021/08/04 06:21:30;;;;;;;5.82;3.05;;;;;;;18.11;73.29;100416.88;4986576;28;20039;-85
2021/08/04 06:23:55;;;;;;;5.72;2.47;;;;;;;18.27;73.11;100422.50;4993319;28;20035;-84
2021/08/04 06:26:21;;;;;;;8.10;2.70;;;;;;;18.30;72.76;100417.00;4982065;28;20035;-84
2021/08/04 06:28:49;;;;;;;6.85;2.78;;;;;;;18.48;72.50;100422.56;4984686;28;20442;-84
2021/08/04 06:31:14;;;;;;;5.38;2.30;;;;;;;18.60;71.33;100428.28;4968674;28;20027;-83
2021/08/04 06:33:40;;;;;;;5.53;2.95;;;;;;;18.64;70.77;100422.81;4985654;28;20070;-83
2021/08/04 06:36:05;;;;;;;4.10;2.40;;;;;;;18.66;70.54;100424.47;4983279;28;20085;-83
2021/08/04 06:38:30;;;;;;;3.78;2.50;;;;;;;18.62;70.82;100430.88;4983208;28;20043;-83
2021/08/04 06:40:56;;;;;;;5.78;2.90;;;;;;;18.71;71.41;100424.31;4983891;28;20177;-85
2021/08/04 06:43:22;;;;;;;4.57;2.60;;;;;;;18.86;70.88;100426.34;4983581;28;20034;-83
2021/08/04 06:45:48;;;;;;;5.95;2.55;;;;;;;19.03;70.18;100420.28;4983506;28;20042;-85
2021/08/04 06:48:13;;;;;;;5.22;2.30;;;;;;;19.09;69.87;100424.50;4966997;28;20035;-84
2021/08/04 06:50:38;;;;;;;7.40;2.40;;;;;;;18.96;69.83;100421.47;4984450;28;20030;-85
2021/08/04 06:53:04;;;;;;;4.43;2.08;;;;;;;18.97;70.43;100424.09;4984174;28;20046;-84
2021/08/04 06:55:29;;;;;;;6.75;2.63;;;;;;;19.08;70.01;100426.31;4983634;28;20057;-83
2021/08/04 06:57:54;;;;;;;5.47;2.47;;;;;;;19.34;69.43;100417.16;4983381;28;20050;-84
2021/08/04 07:00:20;;;;;;;6.65;2.63;;;;;;;19.54;68.25;100420.72;4982731;28;20138;-85
2021/08/04 07:02:48;;;;;;;4.95;2.30;;;;;;;19.60;68.07;100418.66;4979706;28;20474;-83
2021/08/04 07:05:13;;;;;;;5.63;2.42;;;;;;;19.68;68.30;100413.84;4981422;28;20038;-83
2021/08/04 07:07:40;;;;;;;4.32;2.70;;;;;;;19.39;68.79;100420.50;4982328;28;20031;-84
2021/08/04 07:10:06;;;;;;;4.60;2.83;;;;;;;19.27;69.33;100424.56;4976965;28;20042;-84
2021/08/04 07:12:31;;;;;;;6.38;2.75;;;;;;;19.52;69.01;100430.63;4979208;28;20054;-83
2021/08/04 07:14:57;;;;;;;4.63;2.13;;;;;;;19.64;68.68;100425.59;4983214;28;20039;-84
2021/08/04 07:17:22;;;;;;;6.20;2.80;;;;;;;19.73;67.79;100418.13;4990206;28;20050;-84
2021/08/04 07:19:47;;;;;;;5.78;2.83;;;;;;;19.87;67.51;100423.72;4991096;28;20481;-84
2021/08/04 07:22:12;;;;;;;5.25;2.42;;;;;;;20.06;67.32;100424.59;4987220;28;20138;-83
2021/08/04 07:24:38;;;;;;;9.10;2.53;;;;;;;20.22;65.76;100427.41;4985448;28;20122;-83
2021/08/04 07:27:03;;;;;;;6.35;2.88;;;;;;;20.24;66.57;100432.69;4979473;28;20078;-83
2021/08/04 07:29:29;;;;;;;8.20;3.88;;;;;;;20.37;66.00;100428.50;4962290;28;20046;-84
2021/08/04 07:31:54;;;;;;;9.27;4.78;;;;;;;20.67;65.29;100428.84;4978626;28;20401;-82
2021/08/04 07:34:24;;;;;;;6.38;3.75;;;;;;;20.96;63.77;100430.06;4978332;28;20599;-83
2021/08/04 07:36:51;;;;;;;12.07;5.10;;;;;;;21.12;63.70;100431.97;4970326;28;20038;-83
2021/08/04 07:39:17;;;;;;;7.35;5.07;;;;;;;21.34;62.85;100429.88;4960505;28;20035;-83
2021/08/04 07:41:42;;;;;;;9.15;4.78;;;;;;;21.37;62.35;100421.66;4976917;28;20043;-83
2021/08/04 07:44:08;;;;;;;7.00;3.03;;;;;;;21.34;61.73;100424.50;4977474;28;20035;-85
2021/08/04 07:46:33;;;;;;;6.20;3.10;;;;;;;21.32;61.32;100428.22;4959981;28;20035;-84
2021/08/04 07:48:58;;;;;;;7.85;3.35;;;;;;;21.33;61.54;100428.16;4976939;28;20038;-83
2021/08/04 07:51:24;;;;;;;8.77;3.05;;;;;;;21.45;61.20;100427.53;4977905;28;20109;-83
2021/08/04 07:53:50;;;;;;;8.80;4.90;;;;;;;21.27;61.69;100433.81;4979089;28;20413;-83
2021/08/04 07:56:19;;;;;;;6.63;3.03;;;;;;;21.55;61.75;100430.59;4975476;28;20050;-83
2021/08/04 07:58:46;;;;;;;7.35;3.00;;;;;;;21.61;60.83;100437.44;4971277;28;20051;-83
2021/08/04 08:01:11;;;;;;;6.30;3.20;;;;;;;21.73;60.11;100431.44;4975523;28;20110;-84
2021/08/04 08:03:36;;;;;;;5.45;3.17;;;;;;;21.73;60.12;100426.06;4976927;28;20082;-83
2021/08/04 08:06:02;;;;;;;8.15;2.85;;;;;;;21.77;60.34;100432.13;4975099;28;20039;-84
2021/08/04 08:08:27;;;;;;;4.60;2.72;;;;;;;21.83;59.69;100432.66;4976021;28;20038;-84
2021/08/04 08:10:53;;;;;;;6.03;3.03;;;;;;;21.70;61.59;100434.28;4970510;28;20043;-83
2021/08/04 08:13:19;;;;;;;5.88;3.03;;;;;;;21.75;60.44;100431.34;4975149;28;20035;-84
2021/08/04 08:15:45;;;;;;;4.10;3.00;;;;;;;21.93;59.88;100429.47;4952837;28;20050;-83
2021/08/04 08:18:10;;;;;;;4.57;2.55;;;;;;;22.03;59.81;100431.59;4975235;28;20090;-83
2021/08/04 08:20:37;;;;;;;6.80;2.50;;;;;;;22.15;59.03;100432.72;4980561;28;20083;-83
2021/08/04 08:23:03;;;;;;;4.25;2.90;;;;;;;21.93;59.45;100427.66;4976319;28;20042;-83
2021/08/04 08:25:28;;;;;;;6.10;2.88;;;;;;;21.89;59.58;100435.00;4975157;28;20049;-84
2021/08/04 08:27:54;;;;;;;6.75;2.97;;;;;;;22.00;59.23;100433.56;4974507;28;20102;-83
2021/08/04 08:30:19;;;;;;;5.30;2.70;;;;;;;21.90;59.29;100427.81;4976092;28;20134;-82
2021/08/04 08:32:48;;;;;;;6.32;2.83;;;;;;;21.89;59.71;100432.31;4964135;28;20034;-83
2021/08/04 08:35:15;;;;;;;8.57;3.03;;;;;;;21.88;59.95;100430.59;4977175;28;20042;-83
2021/08/04 08:37:40;;;;;;;7.57;3.13;;;;;;;21.73;60.34;100431.44;4977873;28;20090;-83
2021/08/04 08:40:07;;;;;;;8.35;2.85;;;;;;;21.70;61.08;100425.38;4977427;28;20047;-84
2021/08/04 08:42:32;;;;;;;5.55;2.97;;;;;;;21.69;60.56;100424.47;4977393;28;20046;-83
2021/08/04 08:44:58;;;;;;;5.47;2.75;;;;;;;21.61;60.74;100432.97;4977551;28;20043;-83
2021/08/04 08:47:23;;;;;;;7.75;2.65;;;;;;;21.77;60.62;100427.63;4978582;28;20035;-83
2021/08/04 08:49:50;;;;;;;5.47;3.03;;;;;;;21.92;60.66;100420.53;4971746;28;20047;-83
2021/08/04 08:52:16;;;;;;;4.15;2.45;;;;;;;22.11;60.16;100417.69;4976816;28;20031;-83
2021/08/04 08:54:41;;;;;;;6.05;2.88;;;;;;;22.12;60.75;100422.13;4977856;28;20073;-83
2021/08/04 08:57:07;;;;;;;6.40;3.10;;;;;;;22.24;59.71;100417.91;4973416;28;20046;-84
2021/08/04 08:59:33;;;;;;;6.57;3.22;;;;;;;22.60;58.82;100423.00;4976380;28;20481;-83
2021/08/04 09:01:59;;;;;;;9.20;3.33;;;;;;;22.78;58.00;100425.59;4977737;28;20031;-84
2021/08/04 09:04:24;;;;;;;4.90;3.30;;;;;;;22.94;57.72;100415.66;4974086;28;20394;-83
2021/08/04 09:06:53;;;;;;;5.40;3.20;;;;;;;23.02;57.85;100420.59;4976440;28;20046;-84
2021/08/04 09:09:25;;;;;;;5.43;2.60;;;;;;;23.03;57.52;100417.84;4975956;28;20081;-84
2021/08/04 09:12:16;;;;;;;8.73;2.67;;;;;;;23.29;56.91;100415.38;4973108;28;20038;-83
2021/08/04 09:14:42;;;;;;;7.63;3.50;;;;;;;23.26;56.76;100411.03;4970539;28;20057;-83
2021/08/04 09:17:10;;;;;;;4.72;2.65;;;;;;;23.33;56.47;100411.53;4969513;28;20502;-82
2021/08/04 09:19:38;;;;;;;3.90;2.40;;;;;;;23.36;56.35;100411.34;4973613;28;20397;-84
2021/08/04 09:22:05;;;;;;;6.18;2.90;;;;;;;23.12;55.53;100409.19;4982790;28;20043;-83
2021/08/04 09:24:54;;;;;;;6.35;3.53;;;;;;;22.88;55.38;100406.13;4974134;28;20040;-83
2021/08/04 09:27:35;;;;;;;6.38;2.92;;;;;;;22.68;56.02;100404.59;4973365;28;20039;-83
2021/08/04 09:30:00;;;;;;;5.78;2.97;;;;;;;22.65;56.80;100409.28;4973833;28;20054;-83
2021/08/04 09:32:26;;;;;;;5.38;2.85;;;;;;;22.44;55.97;100412.25;4975201;28;20042;-83
2021/08/04 09:34:52;;;;;;;4.10;2.88;;;;;;;22.43;55.42;100409.69;4976466;28;20034;-83
2021/08/04 09:37:19;;;;;;;5.28;2.40;;;;;;;22.59;56.00;100404.28;4975407;28;20093;-83
2021/08/04 09:39:54;;;;;;;5.43;2.65;;;;;;;22.85;53.62;100410.81;4959420;28;20050;-83
2021/08/04 09:42:21;;;;;;;4.20;2.35;;;;;;;23.08;54.43;100404.09;4953202;28;20043;-83
2021/08/04 09:44:58;;;;;;;5.55;2.78;;;;;;;23.28;53.03;100398.34;4973998;28;20039;-83
2021/08/04 09:47:24;;;;;;;5.47;2.80;;;;;;;23.49;53.31;100392.63;4976627;28;20123;-84
2021/08/04 09:49:58;;;;;;;4.82;2.28;;;;;;;23.76;53.33;100392.72;4976495;28;20043;-84
2021/08/04 09:52:24;;;;;;;5.45;3.35;;;;;;;23.61;52.15;100394.56;4968267;28;20430;-84
2021/08/04 09:54:50;;;;;;;5.35;3.10;;;;;;;23.70;52.19;100399.34;4976054;28;20067;-84
2021/08/04 09:57:15;;;;;;;5.18;2.25;;;;;;;23.52;50.38;100387.03;4974904;28;20039;-84
2021/08/04 10:00:05;;;;;;;4.15;2.20;;;;;;;24.02;50.17;100391.94;4976377;28;20062;-84
2021/08/04 10:02:30;;;;;;;4.50;2.38;;;;;;;24.20;49.40;100391.72;4983696;28;20043;-83
2021/08/04 10:05:16;;;;;;;4.15;2.08;;;;;;;24.86;48.49;100390.94;4980084;28;20213;-83
2021/08/04 10:08:00;;;;;;;3.45;1.88;;;;;;;25.26;47.55;100388.22;4981493;28;20039;-84
2021/08/04 10:10:26;;;;;;;4.45;2.20;;;;;;;25.71;46.91;100385.06;4966352;28;20031;-83
2021/08/04 10:12:54;;;;;;;3.38;1.83;;;;;;;25.90;46.75;100381.94;4981974;28;20034;-83
2021/08/04 10:15:19;;;;;;;4.25;2.42;;;;;;;25.92;45.60;100374.56;4978937;28;20049;-83
2021/08/04 10:17:45;;;;;;;4.25;1.90;;;;;;;26.00;46.35;100374.88;4980835;28;20094;-83
2021/08/04 10:20:11;;;;;;;3.95;2.25;;;;;;;26.15;45.48;100381.88;4981174;28;20067;-83
2021/08/04 10:22:38;;;;;;;3.20;1.73;;;;;;;26.36;45.26;100383.97;4980223;28;20505;-83
2021/08/04 10:25:03;;;;;;;6.00;2.22;;;;;;;26.33;44.43;100382.34;4976184;28;20038;-83
2021/08/04 10:27:30;;;;;;;3.78;2.15;;;;;;;26.15;44.20;100381.88;4961124;28;20089;-82
2021/08/04 10:29:55;;;;;;;4.45;2.03;;;;;;;26.12;43.75;100378.50;4960357;28;20084;-83
2021/08/04 10:32:21;;;;;;;5.32;2.30;;;;;;;26.01;45.12;100373.91;4960757;28;20030;-83
2021/08/04 10:34:49;;;;;;;5.85;1.98;;;;;;;26.13;44.60;100377.56;4976451;28;20043;-83
2021/08/04 10:37:15;;;;;;;5.55;1.77;;;;;;;26.21;44.82;100375.13;4976275;28;20505;-82
2021/08/04 10:39:41;;;;;;;3.55;2.00;;;;;;;26.38;44.50;100379.28;4975270;28;20034;-82
2021/08/04 10:42:08;;;;;;;4.40;2.20;;;;;;;26.47;44.54;100375.91;4978353;28;20125;-82
2021/08/04 10:44:35;;;;;;;5.85;2.95;;;;;;;26.49;44.73;100373.94;4975667;28;20410;-83
2021/08/04 10:47:04;;;;;;;5.72;2.28;;;;;;;26.70;44.20;100370.59;4965611;28;20057;-83
2021/08/04 10:49:35;;;;;;;7.32;2.60;;;;;;;26.60;42.35;100367.75;4979179;28;20046;-83
2021/08/04 10:52:00;;;;;;;4.15;1.67;;;;;;;26.91;43.53;100377.09;4981887;28;20393;-82
2021/08/04 10:54:28;;;;;;;4.25;2.30;;;;;;;26.97;42.70;100371.22;4981851;28;20030;-84
2021/08/04 10:56:53;;;;;;;4.93;2.05;;;;;;;27.22;42.45;100366.63;4966784;28;20038;-83
2021/08/04 10:59:19;;;;;;;2.65;1.88;;;;;;;27.15;42.33;100368.91;4978018;28;20477;-83
2021/08/04 11:01:49;;;;;;;5.18;2.20;;;;;;;27.07;41.55;100349.69;4958841;28;20030;-83
2021/08/04 11:04:44;;;;;;;4.65;1.88;;;;;;;26.05;43.05;100355.63;4974492;28;20047;-83
2021/08/04 11:07:19;;;;;;;2.90;2.00;;;;;;;26.34;42.41;100359.72;4989290;28;20536;-83
2021/08/04 11:09:51;;;;;;;3.90;1.95;;;;;;;26.70;43.00;100354.38;4974806;28;20113;-83
2021/08/04 11:12:21;;;;;;;3.90;2.25;;;;;;;27.13;41.54;100348.34;4972984;28;20489;-83
2021/08/04 11:14:58;;;;;;;8.27;3.53;;;;;;;27.20;41.82;100353.19;4975321;28;20034;-83
2021/08/04 11:17:25;;;;;;;5.35;2.13;;;;;;;27.08;41.66;100348.69;4958317;28;20035;-83
2021/08/04 11:19:56;;;;;;;7.28;2.30;;;;;;;27.18;42.11;100347.03;4974330;28;20097;-83
2021/08/04 11:22:22;;;;;;;4.00;2.78;;;;;;;27.35;40.63;100347.53;4971609;28;20035;-83
2021/08/04 11:24:57;;;;;;;4.55;1.85;;;;;;;27.35;40.37;100350.25;4975036;28;20031;-83